sensor_id;sensor_type;location;lat;lon;timestamp;pressure;altitude;pressure_sealevel;temperature;humidity
40948;BME280;49382;-25.924;28.194;2023-03-16T00:01:07;85135.32;;;21.55;35.80
40948;BME280;49382;-25.924;28.194;2023-03-16T00:03:32;85133.95;;;23.08;33.51
40948;BME280;49382;-25.924;28.194;2023-03-16T00:05:58;85133.93;;;20.11;37.19
40948;BME280;49382;-25.924;28.194;2023-03-16T00:08:23;85132.24;;;20.51;37.39
40948;BME280;49382;-25.924;28.194;2023-03-16T00:10:49;85126.57;;;20.49;37.20
40948;BME280;49382;-25.924;28.194;2023-03-16T00:13:16;85126.35;;;19.58;38.40
40948;BME280;49382;-25.924;28.194;2023-03-16T00:15:41;85123.70;;;20.76;37.36
40948;BME280;49382;-25.924;28.194;2023-03-16T00:18:06;85125.65;;;21.94;35.89
40948;BME280;49382;-25.924;28.194;2023-03-16T00:20:32;85120.51;;;21.81;35.28
40948;BME280;49382;-25.924;28.194;2023-03-16T00:22:57;85121.11;;;22.76;34.55
40948;BME280;49382;-25.924;28.194;2023-03-16T00:25:22;85124.54;;;20.81;37.39
40948;BME280;49382;-25.924;28.194;2023-03-16T00:27:48;85123.10;;;22.05;35.12
40948;BME280;49382;-25.924;28.194;2023-03-16T00:30:14;85124.92;;;22.79;34.94
40948;BME280;49382;-25.924;28.194;2023-03-16T00:32:40;85124.17;;;22.36;34.82
40948;BME280;49382;-25.924;28.194;2023-03-16T00:35:06;85122.05;;;21.85;35.35
40948;BME280;49382;-25.924;28.194;2023-03-16T00:37:32;85125.26;;;21.68;35.75
40948;BME280;49382;-25.924;28.194;2023-03-16T00:39:58;85128.42;;;22.38;35.43
40948;BME280;49382;-25.924;28.194;2023-03-16T00:42:26;85135.20;;;21.63;35.81
40948;BME280;49382;-25.924;28.194;2023-03-16T00:44:49;85130.74;;;22.69;35.14
40948;BME280;49382;-25.924;28.194;2023-03-16T00:47:15;85133.33;;;21.79;35.61
40948;BME280;49382;-25.924;28.194;2023-03-16T00:49:42;85136.87;;;20.80;36.78
40948;BME280;49382;-25.924;28.194;2023-03-16T00:52:07;85131.73;;;21.96;35.34
40948;BME280;49382;-25.924;28.194;2023-03-16T00:54:32;85132.55;;;21.85;35.60
40948;BME280;49382;-25.924;28.194;2023-03-16T00:56:58;85135.41;;;21.13;36.67
40948;BME280;49382;-25.924;28.194;2023-03-16T00:59:24;85133.58;;;20.89;37.23
40948;BME280;49382;-25.924;28.194;2023-03-16T01:01:50;85136.55;;;22.62;35.01
40948;BME280;49382;-25.924;28.194;2023-03-16T01:04:16;85138.70;;;23.90;33.48
40948;BME280;49382;-25.924;28.194;2023-03-16T01:06:41;85137.99;;;21.05;37.11
40948;BME280;49382;-25.924;28.194;2023-03-16T01:09:07;85139.50;;;22.63;34.84
40948;BME280;49382;-25.924;28.194;2023-03-16T01:11:33;85143.40;;;21.60;36.74
40948;BME280;49382;-25.924;28.194;2023-03-16T01:13:59;85137.40;;;22.31;35.23
40948;BME280;49382;-25.924;28.194;2023-03-16T01:16:25;85142.04;;;21.12;37.47
40948;BME280;49382;-25.924;28.194;2023-03-16T01:18:50;85139.84;;;20.49;38.42
40948;BME280;49382;-25.924;28.194;2023-03-16T01:21:16;85145.38;;;20.95;37.96
40948;BME280;49382;-25.924;28.194;2023-03-16T01:23:42;85137.17;;;19.84;40.29
40948;BME280;49382;-25.924;28.194;2023-03-16T01:26:07;85140.77;;;19.53;41.18
40948;BME280;49382;-25.924;28.194;2023-03-16T01:28:33;85147.39;;;19.72;40.14
40948;BME280;49382;-25.924;28.194;2023-03-16T01:31:01;85152.96;;;20.90;38.74
40948;BME280;49382;-25.924;28.194;2023-03-16T01:33:26;85151.47;;;21.64;37.75
40948;BME280;49382;-25.924;28.194;2023-03-16T01:35:54;85149.05;;;20.20;39.65
40948;BME280;49382;-25.924;28.194;2023-03-16T01:38:15;85146.46;;;22.25;36.41
40948;BME280;49382;-25.924;28.194;2023-03-16T01:40:41;85154.64;;;21.84;36.65
40948;BME280;49382;-25.924;28.194;2023-03-16T01:43:09;85152.34;;;20.59;38.94
40948;BME280;49382;-25.924;28.194;2023-03-16T01:47:57;85154.30;;;21.37;37.80
40948;BME280;49382;-25.924;28.194;2023-03-16T01:50:22;85156.19;;;20.96;38.75
40948;BME280;49382;-25.924;28.194;2023-03-16T01:52:47;85153.58;;;20.85;38.77
40948;BME280;49382;-25.924;28.194;2023-03-16T01:55:12;85153.30;;;21.38;37.62
40948;BME280;49382;-25.924;28.194;2023-03-16T01:57:39;85150.59;;;19.68;40.63
40948;BME280;49382;-25.924;28.194;2023-03-16T02:00:07;85155.09;;;20.65;38.95
40948;BME280;49382;-25.924;28.194;2023-03-16T02:02:30;85154.28;;;21.41;38.04
40948;BME280;49382;-25.924;28.194;2023-03-16T02:04:58;85158.16;;;21.01;38.97
40948;BME280;49382;-25.924;28.194;2023-03-16T02:07:21;85162.05;;;21.46;38.27
40948;BME280;49382;-25.924;28.194;2023-03-16T02:09:45;85166.87;;;20.29;39.62
40948;BME280;49382;-25.924;28.194;2023-03-16T02:12:10;85171.77;;;20.66;40.19
40948;BME280;49382;-25.924;28.194;2023-03-16T02:14:35;85167.05;;;21.62;38.21
40948;BME280;49382;-25.924;28.194;2023-03-16T02:17:00;85177.95;;;22.30;37.00
40948;BME280;49382;-25.924;28.194;2023-03-16T02:19:34;85173.45;;;21.67;37.79
40948;BME280;49382;-25.924;28.194;2023-03-16T02:21:57;85176.37;;;20.97;38.93
40948;BME280;49382;-25.924;28.194;2023-03-16T02:24:17;85178.21;;;22.00;37.76
40948;BME280;49382;-25.924;28.194;2023-03-16T02:26:46;85171.91;;;22.61;36.29
40948;BME280;49382;-25.924;28.194;2023-03-16T02:29:17;85172.11;;;22.49;36.80
40948;BME280;49382;-25.924;28.194;2023-03-16T02:31:34;85173.30;;;21.59;38.38
40948;BME280;49382;-25.924;28.194;2023-03-16T02:34:00;85171.76;;;20.21;40.62
40948;BME280;49382;-25.924;28.194;2023-03-16T02:36:25;85170.82;;;19.85;41.26
40948;BME280;49382;-25.924;28.194;2023-03-16T02:38:50;85174.33;;;20.50;40.83
40948;BME280;49382;-25.924;28.194;2023-03-16T02:41:19;85170.74;;;19.69;41.55
40948;BME280;49382;-25.924;28.194;2023-03-16T02:43:45;85183.88;;;21.64;38.91
40948;BME280;49382;-25.924;28.194;2023-03-16T02:46:08;85179.75;;;22.19;38.24
40948;BME280;49382;-25.924;28.194;2023-03-16T02:48:37;85182.55;;;20.62;40.24
40948;BME280;49382;-25.924;28.194;2023-03-16T02:50:59;85182.27;;;19.73;41.37
40948;BME280;49382;-25.924;28.194;2023-03-16T02:53:25;85180.17;;;19.65;42.34
40948;BME280;49382;-25.924;28.194;2023-03-16T02:55:51;85182.39;;;21.73;38.59
40948;BME280;49382;-25.924;28.194;2023-03-16T02:58:17;85182.58;;;20.78;39.44
40948;BME280;49382;-25.924;28.194;2023-03-16T03:00:43;85187.11;;;20.30;40.55
40948;BME280;49382;-25.924;28.194;2023-03-16T03:03:08;85188.47;;;20.04;41.09
40948;BME280;49382;-25.924;28.194;2023-03-16T03:05:34;85190.31;;;20.50;40.48
40948;BME280;49382;-25.924;28.194;2023-03-16T03:08:00;85193.93;;;21.99;38.38
40948;BME280;49382;-25.924;28.194;2023-03-16T03:10:26;85198.77;;;21.95;37.92
40948;BME280;49382;-25.924;28.194;2023-03-16T03:12:51;85198.13;;;21.66;38.24
40948;BME280;49382;-25.924;28.194;2023-03-16T03:15:17;85194.15;;;20.78;39.51
40948;BME280;49382;-25.924;28.194;2023-03-16T03:17:44;85198.89;;;20.07;40.83
40948;BME280;49382;-25.924;28.194;2023-03-16T03:20:10;85203.24;;;19.12;42.63
40948;BME280;49382;-25.924;28.194;2023-03-16T03:22:35;85204.19;;;19.18;42.15
40948;BME280;49382;-25.924;28.194;2023-03-16T03:25:00;85209.31;;;18.88;43.06
40948;BME280;49382;-25.924;28.194;2023-03-16T03:27:26;85216.11;;;19.80;41.76
40948;BME280;49382;-25.924;28.194;2023-03-16T03:29:52;85219.22;;;20.07;40.88
40948;BME280;49382;-25.924;28.194;2023-03-16T03:32:18;85221.32;;;18.65;43.04
40948;BME280;49382;-25.924;28.194;2023-03-16T03:34:43;85225.74;;;20.37;40.90
40948;BME280;49382;-25.924;28.194;2023-03-16T03:37:09;85231.81;;;19.39;42.80
40948;BME280;49382;-25.924;28.194;2023-03-16T03:39:35;85234.05;;;19.13;43.36
40948;BME280;49382;-25.924;28.194;2023-03-16T03:42:01;85235.37;;;19.46;42.32
40948;BME280;49382;-25.924;28.194;2023-03-16T03:44:26;85232.18;;;18.39;44.30
40948;BME280;49382;-25.924;28.194;2023-03-16T03:46:52;85233.57;;;18.86;44.02
40948;BME280;49382;-25.924;28.194;2023-03-16T03:49:18;85237.57;;;18.22;44.86
40948;BME280;49382;-25.924;28.194;2023-03-16T03:51:43;85236.70;;;18.41;44.51
40948;BME280;49382;-25.924;28.194;2023-03-16T03:54:09;85239.49;;;18.97;43.52
40948;BME280;49382;-25.924;28.194;2023-03-16T03:56:34;85245.62;;;18.77;43.36
40948;BME280;49382;-25.924;28.194;2023-03-16T03:59:00;85246.08;;;18.76;43.06
40948;BME280;49382;-25.924;28.194;2023-03-16T04:01:26;85240.25;;;18.07;44.46
40948;BME280;49382;-25.924;28.194;2023-03-16T04:03:52;85246.74;;;18.55;43.97
40948;BME280;49382;-25.924;28.194;2023-03-16T04:06:17;85248.71;;;19.46;43.09
40948;BME280;49382;-25.924;28.194;2023-03-16T04:08:43;85250.64;;;19.62;42.77
40948;BME280;49382;-25.924;28.194;2023-03-16T04:11:08;85252.93;;;19.65;42.73
40948;BME280;49382;-25.924;28.194;2023-03-16T04:13:34;85255.30;;;18.64;44.30
40948;BME280;49382;-25.924;28.194;2023-03-16T04:16:00;85252.63;;;20.18;41.40
40948;BME280;49382;-25.924;28.194;2023-03-16T04:18:25;85254.22;;;19.11;43.41
40948;BME280;49382;-25.924;28.194;2023-03-16T04:20:51;85256.05;;;19.59;42.77
40948;BME280;49382;-25.924;28.194;2023-03-16T04:23:17;85261.28;;;19.21;42.57
40948;BME280;49382;-25.924;28.194;2023-03-16T04:25:42;85268.06;;;19.29;42.98
40948;BME280;49382;-25.924;28.194;2023-03-16T04:28:08;85271.59;;;20.18;41.44
40948;BME280;49382;-25.924;28.194;2023-03-16T04:30:33;85270.31;;;19.29;42.49
40948;BME280;49382;-25.924;28.194;2023-03-16T04:32:58;85269.15;;;19.19;43.18
40948;BME280;49382;-25.924;28.194;2023-03-16T04:35:24;85266.34;;;20.48;40.73
40948;BME280;49382;-25.924;28.194;2023-03-16T04:37:50;85266.01;;;20.10;40.95
40948;BME280;49382;-25.924;28.194;2023-03-16T04:40:15;85266.57;;;19.96;41.88
40948;BME280;49382;-25.924;28.194;2023-03-16T04:42:40;85266.07;;;19.98;42.00
40948;BME280;49382;-25.924;28.194;2023-03-16T04:45:06;85265.45;;;20.59;40.77
40948;BME280;49382;-25.924;28.194;2023-03-16T04:47:30;85266.10;;;19.55;41.94
40948;BME280;49382;-25.924;28.194;2023-03-16T04:49:56;85270.99;;;21.31;39.10
40948;BME280;49382;-25.924;28.194;2023-03-16T04:52:22;85273.90;;;21.03;38.77
40948;BME280;49382;-25.924;28.194;2023-03-16T04:54:48;85270.48;;;20.36;40.42
40948;BME280;49382;-25.924;28.194;2023-03-16T04:57:13;85272.44;;;22.51;37.34
40948;BME280;49382;-25.924;28.194;2023-03-16T04:59:39;85278.16;;;22.32;37.78
40948;BME280;49382;-25.924;28.194;2023-03-16T05:02:04;85279.39;;;20.06;41.76
40948;BME280;49382;-25.924;28.194;2023-03-16T05:04:30;85282.05;;;20.51;40.59
40948;BME280;49382;-25.924;28.194;2023-03-16T05:06:55;85284.72;;;21.86;38.77
40948;BME280;49382;-25.924;28.194;2023-03-16T05:09:21;85288.19;;;20.73;40.13
40948;BME280;49382;-25.924;28.194;2023-03-16T05:11:47;85297.79;;;23.23;36.48
40948;BME280;49382;-25.924;28.194;2023-03-16T05:14:13;85302.68;;;22.99;36.14
40948;BME280;49382;-25.924;28.194;2023-03-16T05:16:38;85304.00;;;22.51;37.18
40948;BME280;49382;-25.924;28.194;2023-03-16T05:19:04;85300.20;;;21.98;37.69
40948;BME280;49382;-25.924;28.194;2023-03-16T05:21:30;85304.69;;;21.50;38.91
40948;BME280;49382;-25.924;28.194;2023-03-16T05:23:55;85307.78;;;22.56;36.77
40948;BME280;49382;-25.924;28.194;2023-03-16T05:26:21;85309.89;;;22.10;38.08
40948;BME280;49382;-25.924;28.194;2023-03-16T05:28:47;85314.80;;;22.98;36.49
40948;BME280;49382;-25.924;28.194;2023-03-16T05:31:13;85319.86;;;24.76;34.19
40948;BME280;49382;-25.924;28.194;2023-03-16T05:33:38;85319.99;;;20.90;40.01
40948;BME280;49382;-25.924;28.194;2023-03-16T05:36:04;85320.86;;;20.28;42.31
40948;BME280;49382;-25.924;28.194;2023-03-16T05:38:30;85330.37;;;21.99;38.85
40948;BME280;49382;-25.924;28.194;2023-03-16T05:40:56;85326.19;;;21.36;39.08
40948;BME280;49382;-25.924;28.194;2023-03-16T05:43:21;85327.14;;;21.45;39.03
40948;BME280;49382;-25.924;28.194;2023-03-16T05:45:47;85323.86;;;20.51;40.31
40948;BME280;49382;-25.924;28.194;2023-03-16T05:48:13;85324.66;;;20.88;40.67
40948;BME280;49382;-25.924;28.194;2023-03-16T05:50:39;85327.59;;;22.46;38.42
40948;BME280;49382;-25.924;28.194;2023-03-16T05:53:05;85332.92;;;23.55;36.34
40948;BME280;49382;-25.924;28.194;2023-03-16T05:55:30;85330.93;;;21.62;40.10
40948;BME280;49382;-25.924;28.194;2023-03-16T05:57:57;85334.11;;;21.57;40.45
40948;BME280;49382;-25.924;28.194;2023-03-16T06:00:23;85335.44;;;22.09;38.75
40948;BME280;49382;-25.924;28.194;2023-03-16T06:02:49;85335.23;;;21.81;40.28
40948;BME280;49382;-25.924;28.194;2023-03-16T06:05:14;85341.73;;;20.96;42.37
40948;BME280;49382;-25.924;28.194;2023-03-16T06:07:39;85338.43;;;21.29;39.41
40948;BME280;49382;-25.924;28.194;2023-03-16T06:10:06;85336.52;;;21.53;38.57
40948;BME280;49382;-25.924;28.194;2023-03-16T06:12:31;85343.56;;;21.45;38.69
40948;BME280;49382;-25.924;28.194;2023-03-16T06:14:56;85353.95;;;22.20;37.36
40948;BME280;49382;-25.924;28.194;2023-03-16T06:17:22;85352.92;;;22.13;38.22
40948;BME280;49382;-25.924;28.194;2023-03-16T06:19:48;85355.82;;;23.82;35.06
40948;BME280;49382;-25.924;28.194;2023-03-16T06:22:14;85350.10;;;22.54;36.75
40948;BME280;49382;-25.924;28.194;2023-03-16T06:24:40;85349.33;;;22.99;36.50
40948;BME280;49382;-25.924;28.194;2023-03-16T06:27:05;85350.46;;;23.40;35.99
40948;BME280;49382;-25.924;28.194;2023-03-16T06:29:31;85353.89;;;24.42;35.07
40948;BME280;49382;-25.924;28.194;2023-03-16T06:31:57;85354.42;;;21.74;37.48
40948;BME280;49382;-25.924;28.194;2023-03-16T06:34:22;85348.69;;;22.87;36.40
40948;BME280;49382;-25.924;28.194;2023-03-16T06:36:48;85347.81;;;24.04;34.42
40948;BME280;49382;-25.924;28.194;2023-03-16T06:39:14;85353.10;;;23.01;35.56
40948;BME280;49382;-25.924;28.194;2023-03-16T06:41:40;85357.83;;;23.43;34.71
40948;BME280;49382;-25.924;28.194;2023-03-16T06:44:06;85352.89;;;23.74;34.83
40948;BME280;49382;-25.924;28.194;2023-03-16T06:46:31;85366.11;;;24.15;33.76
40948;BME280;49382;-25.924;28.194;2023-03-16T06:48:57;85358.60;;;23.12;34.64
40948;BME280;49382;-25.924;28.194;2023-03-16T06:51:23;85364.32;;;22.55;36.60
40948;BME280;49382;-25.924;28.194;2023-03-16T06:53:49;85362.00;;;22.76;35.48
40948;BME280;49382;-25.924;28.194;2023-03-16T06:56:14;85365.65;;;24.06;35.02
40948;BME280;49382;-25.924;28.194;2023-03-16T06:58:40;85374.26;;;22.61;35.23
40948;BME280;49382;-25.924;28.194;2023-03-16T07:01:06;85363.29;;;22.36;35.31
40948;BME280;49382;-25.924;28.194;2023-03-16T07:03:32;85374.53;;;25.28;32.11
40948;BME280;49382;-25.924;28.194;2023-03-16T07:05:57;85384.81;;;24.23;33.17
40948;BME280;49382;-25.924;28.194;2023-03-16T07:08:23;85371.13;;;23.25;33.87
40948;BME280;49382;-25.924;28.194;2023-03-16T07:10:50;85373.73;;;22.80;34.63
40948;BME280;49382;-25.924;28.194;2023-03-16T07:13:15;85375.23;;;22.81;34.29
40948;BME280;49382;-25.924;28.194;2023-03-16T07:15:40;85379.72;;;22.27;34.93
40948;BME280;49382;-25.924;28.194;2023-03-16T07:18:06;85379.73;;;22.71;34.92
40948;BME280;49382;-25.924;28.194;2023-03-16T07:20:32;85386.81;;;22.10;36.52
40948;BME280;49382;-25.924;28.194;2023-03-16T07:22:58;85384.85;;;22.29;35.54
40948;BME280;49382;-25.924;28.194;2023-03-16T07:25:24;85385.99;;;22.98;35.52
40948;BME280;49382;-25.924;28.194;2023-03-16T07:27:49;85402.99;;;22.85;36.45
40948;BME280;49382;-25.924;28.194;2023-03-16T07:30:15;85400.02;;;24.26;33.36
40948;BME280;49382;-25.924;28.194;2023-03-16T07:32:41;85396.37;;;25.61;31.04
40948;BME280;49382;-25.924;28.194;2023-03-16T07:35:08;85387.54;;;25.23;31.28
40948;BME280;49382;-25.924;28.194;2023-03-16T07:37:32;85388.33;;;25.95;31.38
40948;BME280;49382;-25.924;28.194;2023-03-16T07:39:58;85385.87;;;24.12;33.16
40948;BME280;49382;-25.924;28.194;2023-03-16T07:42:24;85382.68;;;23.50;33.17
40948;BME280;49382;-25.924;28.194;2023-03-16T07:44:50;85376.13;;;23.40;32.95
40948;BME280;49382;-25.924;28.194;2023-03-16T07:47:15;85375.46;;;23.22;33.38
40948;BME280;49382;-25.924;28.194;2023-03-16T07:49:41;85368.67;;;24.24;32.79
40948;BME280;49382;-25.924;28.194;2023-03-16T07:52:07;85368.86;;;24.05;32.96
40948;BME280;49382;-25.924;28.194;2023-03-16T07:54:32;85375.14;;;24.04;32.47
40948;BME280;49382;-25.924;28.194;2023-03-16T07:56:58;85370.63;;;25.90;31.20
40948;BME280;49382;-25.924;28.194;2023-03-16T07:59:24;85378.33;;;25.98;30.40
40948;BME280;49382;-25.924;28.194;2023-03-16T08:01:50;85372.03;;;23.44;32.71
40948;BME280;49382;-25.924;28.194;2023-03-16T08:04:15;85367.74;;;24.30;32.15
40948;BME280;49382;-25.924;28.194;2023-03-16T08:06:41;85373.80;;;24.40;32.35
40948;BME280;49382;-25.924;28.194;2023-03-16T08:09:07;85374.32;;;24.85;31.66
40948;BME280;49382;-25.924;28.194;2023-03-16T08:11:32;85365.76;;;24.70;33.25
40948;BME280;49382;-25.924;28.194;2023-03-16T08:13:58;85365.80;;;24.27;31.86
40948;BME280;49382;-25.924;28.194;2023-03-16T08:16:24;85361.48;;;24.30;33.66
40948;BME280;49382;-25.924;28.194;2023-03-16T08:18:50;85364.79;;;25.59;31.38
40948;BME280;49382;-25.924;28.194;2023-03-16T08:21:16;85371.36;;;26.94;27.84
40948;BME280;49382;-25.924;28.194;2023-03-16T08:23:41;85365.41;;;25.88;28.67
40948;BME280;49382;-25.924;28.194;2023-03-16T08:26:07;85363.06;;;26.25;28.90
40948;BME280;49382;-25.924;28.194;2023-03-16T08:28:33;85360.10;;;25.20;29.93
40948;BME280;49382;-25.924;28.194;2023-03-16T08:30:58;85365.78;;;25.02;32.21
40948;BME280;49382;-25.924;28.194;2023-03-16T08:33:24;85353.60;;;24.30;32.01
40948;BME280;49382;-25.924;28.194;2023-03-16T08:35:50;85350.31;;;25.74;30.05
40948;BME280;49382;-25.924;28.194;2023-03-16T08:38:15;85359.65;;;26.00;30.53
40948;BME280;49382;-25.924;28.194;2023-03-16T08:40:41;85353.57;;;26.16;30.23
40948;BME280;49382;-25.924;28.194;2023-03-16T08:43:07;85354.74;;;24.97;30.50
40948;BME280;49382;-25.924;28.194;2023-03-16T08:45:33;85353.65;;;25.26;30.56
40948;BME280;49382;-25.924;28.194;2023-03-16T08:47:58;85342.79;;;25.02;30.15
40948;BME280;49382;-25.924;28.194;2023-03-16T08:50:24;85338.02;;;24.94;31.53
40948;BME280;49382;-25.924;28.194;2023-03-16T08:52:50;85331.07;;;25.68;31.01
40948;BME280;49382;-25.924;28.194;2023-03-16T08:55:16;85332.11;;;27.10;29.94
40948;BME280;49382;-25.924;28.194;2023-03-16T08:57:42;85323.76;;;25.46;30.02
40948;BME280;49382;-25.924;28.194;2023-03-16T09:00:08;85320.30;;;24.56;32.41
40948;BME280;49382;-25.924;28.194;2023-03-16T09:02:33;85312.67;;;25.05;33.01
40948;BME280;49382;-25.924;28.194;2023-03-16T09:04:59;85310.93;;;25.59;31.23
40948;BME280;49382;-25.924;28.194;2023-03-16T09:07:24;85319.15;;;25.26;30.36
40948;BME280;49382;-25.924;28.194;2023-03-16T09:09:50;85314.72;;;24.77;29.95
40948;BME280;49382;-25.924;28.194;2023-03-16T09:12:16;85313.00;;;24.01;30.85
40948;BME280;49382;-25.924;28.194;2023-03-16T09:14:42;85306.56;;;24.37;29.97
40948;BME280;49382;-25.924;28.194;2023-03-16T09:17:08;85297.74;;;25.18;30.11
40948;BME280;49382;-25.924;28.194;2023-03-16T09:19:33;85291.00;;;25.78;30.45
40948;BME280;49382;-25.924;28.194;2023-03-16T09:21:59;85295.72;;;27.04;28.83
40948;BME280;49382;-25.924;28.194;2023-03-16T09:24:25;85292.00;;;24.55;29.96
40948;BME280;49382;-25.924;28.194;2023-03-16T09:26:51;85294.50;;;24.60;31.08
40948;BME280;49382;-25.924;28.194;2023-03-16T09:29:16;85291.32;;;24.30;32.32
40948;BME280;49382;-25.924;28.194;2023-03-16T09:31:42;85290.28;;;25.21;33.55
40948;BME280;49382;-25.924;28.194;2023-03-16T09:34:08;85292.53;;;26.65;29.79
40948;BME280;49382;-25.924;28.194;2023-03-16T09:36:33;85286.39;;;26.48;28.65
40948;BME280;49382;-25.924;28.194;2023-03-16T09:38:59;85287.52;;;24.89;29.91
40948;BME280;49382;-25.924;28.194;2023-03-16T09:41:37;85278.42;;;24.98;29.37
40948;BME280;49382;-25.924;28.194;2023-03-16T09:44:03;85282.19;;;25.10;30.31
40948;BME280;49382;-25.924;28.194;2023-03-16T09:46:23;85284.83;;;27.96;27.35
40948;BME280;49382;-25.924;28.194;2023-03-16T09:48:42;85283.40;;;26.04;28.76
40948;BME280;49382;-25.924;28.194;2023-03-16T09:51:14;85284.21;;;26.74;28.07
40948;BME280;49382;-25.924;28.194;2023-03-16T09:53:35;85284.11;;;27.81;26.22
40948;BME280;49382;-25.924;28.194;2023-03-16T09:56:03;85281.45;;;27.27;30.13
40948;BME280;49382;-25.924;28.194;2023-03-16T09:58:25;85274.13;;;25.86;28.92
40948;BME280;49382;-25.924;28.194;2023-03-16T10:00:59;85266.70;;;24.24;31.46
40948;BME280;49382;-25.924;28.194;2023-03-16T10:03:26;85270.28;;;25.66;29.90
40948;BME280;49382;-25.924;28.194;2023-03-16T10:05:43;85272.88;;;28.16;26.55
40948;BME280;49382;-25.924;28.194;2023-03-16T10:08:13;85266.64;;;27.00;26.57
40948;BME280;49382;-25.924;28.194;2023-03-16T10:13:00;85257.88;;;27.55;26.36
40948;BME280;49382;-25.924;28.194;2023-03-16T10:15:27;85258.02;;;27.25;26.73
40948;BME280;49382;-25.924;28.194;2023-03-16T10:17:54;85258.84;;;26.32;27.29
40948;BME280;49382;-25.924;28.194;2023-03-16T10:20:19;85261.98;;;24.41;30.88
40948;BME280;49382;-25.924;28.194;2023-03-16T10:22:45;85249.69;;;25.42;26.54
40948;BME280;49382;-25.924;28.194;2023-03-16T10:25:15;85254.47;;;26.06;26.71
40948;BME280;49382;-25.924;28.194;2023-03-16T10:27:36;85252.63;;;25.99;29.26
40948;BME280;49382;-25.924;28.194;2023-03-16T10:30:03;85241.48;;;25.50;28.10
40948;BME280;49382;-25.924;28.194;2023-03-16T10:32:30;85236.37;;;24.41;32.34
40948;BME280;49382;-25.924;28.194;2023-03-16T10:34:56;85237.98;;;25.78;29.72
40948;BME280;49382;-25.924;28.194;2023-03-16T10:37:17;85242.37;;;27.88;25.08
40948;BME280;49382;-25.924;28.194;2023-03-16T10:39:43;85239.45;;;27.27;24.68
40948;BME280;49382;-25.924;28.194;2023-03-16T10:42:14;85235.88;;;25.99;25.91
40948;BME280;49382;-25.924;28.194;2023-03-16T10:44:39;85230.01;;;25.62;28.34
40948;BME280;49382;-25.924;28.194;2023-03-16T10:47:02;85224.58;;;25.47;28.38
40948;BME280;49382;-25.924;28.194;2023-03-16T10:49:33;85227.98;;;26.47;28.64
40948;BME280;49382;-25.924;28.194;2023-03-16T10:51:53;85225.01;;;26.39;26.41
40948;BME280;49382;-25.924;28.194;2023-03-16T10:54:24;85214.56;;;25.73;25.88
40948;BME280;49382;-25.924;28.194;2023-03-16T10:56:42;85214.20;;;24.41;31.08
40948;BME280;49382;-25.924;28.194;2023-03-16T10:59:13;85216.53;;;25.83;28.73
40948;BME280;49382;-25.924;28.194;2023-03-16T11:01:33;85213.85;;;25.85;28.09
40948;BME280;49382;-25.924;28.194;2023-03-16T11:03:59;85207.66;;;25.63;26.41
40948;BME280;49382;-25.924;28.194;2023-03-16T11:06:27;85211.39;;;27.49;25.11
40948;BME280;49382;-25.924;28.194;2023-03-16T11:08:51;85208.43;;;27.42;27.38
40948;BME280;49382;-25.924;28.194;2023-03-16T11:11:20;85204.18;;;26.85;25.33
40948;BME280;49382;-25.924;28.194;2023-03-16T11:13:45;85200.55;;;27.40;25.82
40948;BME280;49382;-25.924;28.194;2023-03-16T11:16:20;85200.77;;;26.78;26.60
40948;BME280;49382;-25.924;28.194;2023-03-16T11:18:37;85189.84;;;26.44;25.34
40948;BME280;49382;-25.924;28.194;2023-03-16T11:21:03;85188.06;;;26.60;28.06
40948;BME280;49382;-25.924;28.194;2023-03-16T11:23:31;85185.96;;;26.81;26.01
40948;BME280;49382;-25.924;28.194;2023-03-16T11:25:52;85191.55;;;25.92;27.34
40948;BME280;49382;-25.924;28.194;2023-03-16T11:28:18;85190.22;;;27.03;24.74
40948;BME280;49382;-25.924;28.194;2023-03-16T11:30:45;85187.04;;;27.94;24.32
40948;BME280;49382;-25.924;28.194;2023-03-16T11:33:09;85184.11;;;25.78;25.70
40948;BME280;49382;-25.924;28.194;2023-03-16T11:35:39;85185.19;;;26.47;25.06
40948;BME280;49382;-25.924;28.194;2023-03-16T11:38:07;85176.89;;;24.87;26.06
40948;BME280;49382;-25.924;28.194;2023-03-16T11:40:35;85173.25;;;24.66;27.09
40948;BME280;49382;-25.924;28.194;2023-03-16T11:42:56;85167.58;;;24.44;27.96
40948;BME280;49382;-25.924;28.194;2023-03-16T11:45:20;85168.48;;;25.98;26.23
40948;BME280;49382;-25.924;28.194;2023-03-16T11:50:12;85161.86;;;25.72;25.61
40948;BME280;49382;-25.924;28.194;2023-03-16T11:52:42;85158.86;;;27.26;24.29
40948;BME280;49382;-25.924;28.194;2023-03-16T11:55:09;85161.90;;;25.90;26.91
40948;BME280;49382;-25.924;28.194;2023-03-16T11:57:35;85156.19;;;25.12;27.22
40948;BME280;49382;-25.924;28.194;2023-03-16T11:59:57;85158.06;;;25.74;26.34
40948;BME280;49382;-25.924;28.194;2023-03-16T12:02:30;85145.59;;;24.50;27.66
40948;BME280;49382;-25.924;28.194;2023-03-16T12:04:50;85150.46;;;25.31;26.03
40948;BME280;49382;-25.924;28.194;2023-03-16T12:07:15;85141.61;;;26.25;25.65
40948;BME280;49382;-25.924;28.194;2023-03-16T12:09:42;85142.12;;;25.87;26.70
40948;BME280;49382;-25.924;28.194;2023-03-16T12:12:02;85138.72;;;25.53;25.76
40948;BME280;49382;-25.924;28.194;2023-03-16T12:14:26;85131.13;;;27.00;24.63
40948;BME280;49382;-25.924;28.194;2023-03-16T12:16:53;85129.65;;;24.92;25.51
40948;BME280;49382;-25.924;28.194;2023-03-16T12:19:18;85127.03;;;25.87;24.97
40948;BME280;49382;-25.924;28.194;2023-03-16T12:21:44;85126.62;;;25.63;25.44
40948;BME280;49382;-25.924;28.194;2023-03-16T12:24:12;85119.72;;;27.62;23.53
40948;BME280;49382;-25.924;28.194;2023-03-16T12:26:34;85110.77;;;25.78;25.47
40948;BME280;49382;-25.924;28.194;2023-03-16T12:28:58;85120.73;;;26.57;25.80
40948;BME280;49382;-25.924;28.194;2023-03-16T12:31:29;85117.78;;;26.73;25.05
40948;BME280;49382;-25.924;28.194;2023-03-16T12:33:57;85110.80;;;25.69;25.42
40948;BME280;49382;-25.924;28.194;2023-03-16T12:36:29;85108.01;;;27.73;22.88
40948;BME280;49382;-25.924;28.194;2023-03-16T12:38:45;85113.15;;;27.16;23.92